sensor_id;sensor_type;location;lat;lon;timestamp;pressure;altitude;pressure_sealevel;temperature;humidity
77023;BME280;65952;51.440;-2.054;2023-03-04T00:00:09;101796.47;;;4.19;68.58
77023;BME280;65952;51.440;-2.054;2023-03-04T00:02:34;101802.13;;;4.13;68.93
77023;BME280;65952;51.440;-2.054;2023-03-04T00:05:00;101802.31;;;4.10;69.23
77023;BME280;65952;51.440;-2.054;2023-03-04T00:07:27;101804.97;;;4.10;69.22
77023;BME280;65952;51.440;-2.054;2023-03-04T00:09:54;101810.34;;;4.09;69.25
77023;BME280;65952;51.440;-2.054;2023-03-04T00:12:19;101812.97;;;4.10;69.30
77023;BME280;65952;51.440;-2.054;2023-03-04T00:14:45;101809.31;;;4.11;69.26
77023;BME280;65952;51.440;-2.054;2023-03-04T00:17:10;101811.91;;;4.13;69.12
77023;BME280;65952;51.440;-2.054;2023-03-04T00:19:36;101808.56;;;4.09;69.50
77023;BME280;65952;51.440;-2.054;2023-03-04T00:22:03;101813.03;;;4.09;69.34
77023;BME280;65952;51.440;-2.054;2023-03-04T00:24:28;101810.56;;;4.05;69.42
77023;BME280;65952;51.440;-2.054;2023-03-04T00:26:54;101806.28;;;4.03;69.42
77023;BME280;65952;51.440;-2.054;2023-03-04T00:29:19;101808.94;;;4.03;69.50
77023;BME280;65952;51.440;-2.054;2023-03-04T00:31:46;101807.44;;;4.13;68.88
77023;BME280;65952;51.440;-2.054;2023-03-04T00:34:11;101810.00;;;4.15;68.79
77023;BME280;65952;51.440;-2.054;2023-03-04T00:36:37;101805.59;;;4.30;68.05
77023;BME280;65952;51.440;-2.054;2023-03-04T00:39:02;101803.94;;;4.43;67.36
77023;BME280;65952;51.440;-2.054;2023-03-04T00:41:27;101812.44;;;4.34;67.93
77023;BME280;65952;51.440;-2.054;2023-03-04T00:43:53;101814.25;;;4.33;68.20
77023;BME280;65952;51.440;-2.054;2023-03-04T00:46:18;101807.53;;;4.42;67.72
77023;BME280;65952;51.440;-2.054;2023-03-04T00:48:44;101808.94;;;4.33;68.34
77023;BME280;65952;51.440;-2.054;2023-03-04T00:51:09;101802.41;;;4.39;67.79
77023;BME280;65952;51.440;-2.054;2023-03-04T00:53:34;101803.94;;;4.43;67.68
77023;BME280;65952;51.440;-2.054;2023-03-04T00:56:00;101811.50;;;4.35;67.69
77023;BME280;65952;51.440;-2.054;2023-03-04T00:58:25;101809.19;;;4.29;68.29
77023;BME280;65952;51.440;-2.054;2023-03-04T01:00:50;101810.66;;;4.34;68.27
77023;BME280;65952;51.440;-2.054;2023-03-04T01:03:16;101815.28;;;4.31;67.99
77023;BME280;65952;51.440;-2.054;2023-03-04T01:05:41;101804.66;;;4.31;67.87
77023;BME280;65952;51.440;-2.054;2023-03-04T01:08:06;101799.66;;;4.41;67.02
77023;BME280;65952;51.440;-2.054;2023-03-04T01:10:32;101801.38;;;4.42;67.27
77023;BME280;65952;51.440;-2.054;2023-03-04T01:12:57;101806.41;;;4.46;66.57
77023;BME280;65952;51.440;-2.054;2023-03-04T01:15:23;101805.66;;;4.44;66.84
77023;BME280;65952;51.440;-2.054;2023-03-04T01:17:48;101795.84;;;4.45;66.72
77023;BME280;65952;51.440;-2.054;2023-03-04T01:20:14;101804.31;;;4.51;66.78
77023;BME280;65952;51.440;-2.054;2023-03-04T01:22:39;101797.00;;;4.55;66.15
77023;BME280;65952;51.440;-2.054;2023-03-04T01:25:05;101792.94;;;4.64;65.32
77023;BME280;65952;51.440;-2.054;2023-03-04T01:27:31;101794.56;;;4.66;64.95
77023;BME280;65952;51.440;-2.054;2023-03-04T01:29:56;101796.19;;;4.69;64.72
77023;BME280;65952;51.440;-2.054;2023-03-04T01:32:22;101788.19;;;4.69;64.77
77023;BME280;65952;51.440;-2.054;2023-03-04T01:34:47;101785.38;;;4.72;64.44
77023;BME280;65952;51.440;-2.054;2023-03-04T01:37:12;101788.97;;;4.71;64.13
77023;BME280;65952;51.440;-2.054;2023-03-04T01:39:38;101782.88;;;4.69;64.63
77023;BME280;65952;51.440;-2.054;2023-03-04T01:42:04;101787.34;;;4.68;64.45
77023;BME280;65952;51.440;-2.054;2023-03-04T01:44:30;101779.16;;;4.71;64.40
77023;BME280;65952;51.440;-2.054;2023-03-04T01:46:56;101781.00;;;4.71;64.13
77023;BME280;65952;51.440;-2.054;2023-03-04T01:49:22;101780.78;;;4.74;64.43
77023;BME280;65952;51.440;-2.054;2023-03-04T01:51:50;101776.34;;;4.75;64.30
77023;BME280;65952;51.440;-2.054;2023-03-04T01:54:18;101774.81;;;4.70;64.48
77023;BME280;65952;51.440;-2.054;2023-03-04T01:56:45;101771.00;;;4.60;65.11
77023;BME280;65952;51.440;-2.054;2023-03-04T01:59:29;101767.00;;;4.67;64.70
77023;BME280;65952;51.440;-2.054;2023-03-04T02:01:58;101768.06;;;4.65;64.58
77023;BME280;65952;51.440;-2.054;2023-03-04T02:04:30;101772.22;;;4.69;64.72
77023;BME280;65952;51.440;-2.054;2023-03-04T02:06:57;101763.50;;;4.67;64.48
77023;BME280;65952;51.440;-2.054;2023-03-04T02:09:24;101760.34;;;4.60;64.50
77023;BME280;65952;51.440;-2.054;2023-03-04T02:11:50;101760.28;;;4.62;64.35
77023;BME280;65952;51.440;-2.054;2023-03-04T02:14:17;101768.44;;;4.59;64.55
77023;BME280;65952;51.440;-2.054;2023-03-04T02:16:42;101769.88;;;4.64;64.40
77023;BME280;65952;51.440;-2.054;2023-03-04T02:19:18;101767.66;;;4.56;64.47
77023;BME280;65952;51.440;-2.054;2023-03-04T02:21:48;101761.13;;;4.62;64.45
77023;BME280;65952;51.440;-2.054;2023-03-04T02:24:19;101759.41;;;4.61;64.73
77023;BME280;65952;51.440;-2.054;2023-03-04T02:26:47;101766.72;;;4.58;64.28
77023;BME280;65952;51.440;-2.054;2023-03-04T02:29:14;101756.56;;;4.64;64.53
77023;BME280;65952;51.440;-2.054;2023-03-04T02:31:48;101756.66;;;4.48;63.78
77023;BME280;65952;51.440;-2.054;2023-03-04T02:34:22;101755.13;;;4.59;63.79
77023;BME280;65952;51.440;-2.054;2023-03-04T02:36:50;101750.59;;;4.61;63.84
77023;BME280;65952;51.440;-2.054;2023-03-04T02:41:52;101753.16;;;4.48;63.40
77023;BME280;65952;51.440;-2.054;2023-03-04T02:44:22;101757.22;;;4.53;63.57
77023;BME280;65952;51.440;-2.054;2023-03-04T02:46:49;101756.19;;;4.56;63.99
77023;BME280;65952;51.440;-2.054;2023-03-04T02:49:15;101751.53;;;4.60;63.91
77023;BME280;65952;51.440;-2.054;2023-03-04T02:51:41;101744.50;;;4.59;63.72
77023;BME280;65952;51.440;-2.054;2023-03-04T02:54:22;101752.38;;;4.60;63.76
77023;BME280;65952;51.440;-2.054;2023-03-04T02:56:50;101757.78;;;4.59;64.05
77023;BME280;65952;51.440;-2.054;2023-03-04T02:59:16;101758.56;;;4.61;64.11
77023;BME280;65952;51.440;-2.054;2023-03-04T03:01:42;101756.94;;;4.58;64.53
77023;BME280;65952;51.440;-2.054;2023-03-04T03:04:08;101757.22;;;4.53;64.39
77023;BME280;65952;51.440;-2.054;2023-03-04T03:06:33;101753.16;;;4.48;64.60
77023;BME280;65952;51.440;-2.054;2023-03-04T03:08:59;101756.06;;;4.43;64.78
77023;BME280;65952;51.440;-2.054;2023-03-04T03:11:24;101756.53;;;4.35;64.97
77023;BME280;65952;51.440;-2.054;2023-03-04T03:13:50;101755.41;;;4.39;64.63
77023;BME280;65952;51.440;-2.054;2023-03-04T03:19:40;101742.19;;;4.38;64.71
77023;BME280;65952;51.440;-2.054;2023-03-04T03:22:05;101738.41;;;4.42;64.67
77023;BME280;65952;51.440;-2.054;2023-03-04T03:24:31;101747.31;;;4.41;64.75
77023;BME280;65952;51.440;-2.054;2023-03-04T03:26:56;101743.41;;;4.32;64.78
77023;BME280;65952;51.440;-2.054;2023-03-04T03:29:22;101740.75;;;4.32;64.91
77023;BME280;65952;51.440;-2.054;2023-03-04T03:31:47;101739.50;;;4.23;64.60
77023;BME280;65952;51.440;-2.054;2023-03-04T03:34:12;101736.09;;;4.21;64.59
77023;BME280;65952;51.440;-2.054;2023-03-04T03:36:38;101734.00;;;4.27;64.75
77023;BME280;65952;51.440;-2.054;2023-03-04T03:39:04;101731.94;;;4.32;64.71
77023;BME280;65952;51.440;-2.054;2023-03-04T03:41:29;101740.47;;;4.37;64.82
77023;BME280;65952;51.440;-2.054;2023-03-04T03:43:55;101738.09;;;4.32;64.80
77023;BME280;65952;51.440;-2.054;2023-03-04T03:46:21;101742.47;;;4.33;64.71
77023;BME280;65952;51.440;-2.054;2023-03-04T03:48:46;101743.78;;;4.26;64.91
77023;BME280;65952;51.440;-2.054;2023-03-04T03:51:11;101744.44;;;4.30;65.12
77023;BME280;65952;51.440;-2.054;2023-03-04T03:53:37;101744.28;;;4.33;64.86
77023;BME280;65952;51.440;-2.054;2023-03-04T03:56:02;101747.69;;;4.35;65.11
77023;BME280;65952;51.440;-2.054;2023-03-04T03:58:28;101747.50;;;4.38;65.13
77023;BME280;65952;51.440;-2.054;2023-03-04T04:00:53;101749.50;;;4.34;65.29
77023;BME280;65952;51.440;-2.054;2023-03-04T04:03:19;101737.72;;;4.24;65.36
77023;BME280;65952;51.440;-2.054;2023-03-04T04:05:44;101749.88;;;4.28;65.29
77023;BME280;65952;51.440;-2.054;2023-03-04T04:08:12;101746.53;;;4.25;65.79
77023;BME280;65952;51.440;-2.054;2023-03-04T04:10:39;101746.16;;;4.31;65.02
77023;BME280;65952;51.440;-2.054;2023-03-04T04:13:04;101751.69;;;4.28;65.04
77023;BME280;65952;51.440;-2.054;2023-03-04T04:15:30;101758.69;;;4.29;64.67
77023;BME280;65952;51.440;-2.054;2023-03-04T04:17:55;101755.28;;;4.27;64.87
77023;BME280;65952;51.440;-2.054;2023-03-04T04:20:20;101755.28;;;4.27;64.41
77023;BME280;65952;51.440;-2.054;2023-03-04T04:22:46;101759.34;;;4.18;64.34
77023;BME280;65952;51.440;-2.054;2023-03-04T04:25:11;101760.75;;;4.23;64.28
77023;BME280;65952;51.440;-2.054;2023-03-04T04:27:37;101762.03;;;4.32;64.31
77023;BME280;65952;51.440;-2.054;2023-03-04T04:30:03;101761.75;;;4.37;64.26
77023;BME280;65952;51.440;-2.054;2023-03-04T04:32:28;101760.81;;;4.38;64.18
77023;BME280;65952;51.440;-2.054;2023-03-04T04:34:54;101764.41;;;4.37;64.59
77023;BME280;65952;51.440;-2.054;2023-03-04T04:37:20;101766.97;;;4.38;64.34
77023;BME280;65952;51.440;-2.054;2023-03-04T04:39:45;101764.22;;;4.40;64.50
77023;BME280;65952;51.440;-2.054;2023-03-04T04:42:10;101761.91;;;4.34;64.94
77023;BME280;65952;51.440;-2.054;2023-03-04T04:44:36;101768.97;;;4.35;64.79
77023;BME280;65952;51.440;-2.054;2023-03-04T04:47:03;101766.41;;;4.33;65.03
77023;BME280;65952;51.440;-2.054;2023-03-04T04:49:30;101770.34;;;4.26;65.39
77023;BME280;65952;51.440;-2.054;2023-03-04T04:51:56;101768.22;;;4.33;65.08
77023;BME280;65952;51.440;-2.054;2023-03-04T04:54:22;101772.28;;;4.38;64.75
77023;BME280;65952;51.440;-2.054;2023-03-04T04:56:47;101773.59;;;4.31;64.88
77023;BME280;65952;51.440;-2.054;2023-03-04T04:59:13;101782.44;;;4.32;64.99
77023;BME280;65952;51.440;-2.054;2023-03-04T05:01:38;101777.72;;;4.37;65.29
77023;BME280;65952;51.440;-2.054;2023-03-04T05:04:04;101774.28;;;4.35;65.41
77023;BME280;65952;51.440;-2.054;2023-03-04T05:06:29;101770.19;;;4.29;65.39
77023;BME280;65952;51.440;-2.054;2023-03-04T05:08:55;101769.78;;;4.21;65.27
77023;BME280;65952;51.440;-2.054;2023-03-04T05:11:21;101777.28;;;4.14;64.86
77023;BME280;65952;51.440;-2.054;2023-03-04T05:13:47;101773.31;;;4.21;64.67
77023;BME280;65952;51.440;-2.054;2023-03-04T05:16:13;101771.69;;;4.19;65.40
77023;BME280;65952;51.440;-2.054;2023-03-04T05:18:38;101780.31;;;4.22;65.40
77023;BME280;65952;51.440;-2.054;2023-03-04T05:21:04;101785.63;;;4.22;65.18
77023;BME280;65952;51.440;-2.054;2023-03-04T05:23:33;101784.97;;;4.19;64.80
77023;BME280;65952;51.440;-2.054;2023-03-04T05:26:00;101782.31;;;4.19;64.97
77023;BME280;65952;51.440;-2.054;2023-03-04T05:28:25;101782.84;;;4.10;64.54
77023;BME280;65952;51.440;-2.054;2023-03-04T05:30:51;101775.06;;;4.06;64.39
77023;BME280;65952;51.440;-2.054;2023-03-04T05:33:17;101783.09;;;4.05;64.54
77023;BME280;65952;51.440;-2.054;2023-03-04T05:35:43;101782.09;;;4.07;64.69
77023;BME280;65952;51.440;-2.054;2023-03-04T05:38:11;101783.72;;;4.10;64.78
77023;BME280;65952;51.440;-2.054;2023-03-04T05:40:37;101789.19;;;4.07;64.65
77023;BME280;65952;51.440;-2.054;2023-03-04T05:43:03;101785.84;;;4.03;64.50
77023;BME280;65952;51.440;-2.054;2023-03-04T05:45:29;101786.44;;;4.09;64.93
77023;BME280;65952;51.440;-2.054;2023-03-04T05:47:55;101781.81;;;4.12;64.63
77023;BME280;65952;51.440;-2.054;2023-03-04T05:50:21;101793.72;;;4.05;64.48
77023;BME280;65952;51.440;-2.054;2023-03-04T05:52:47;101788.94;;;4.12;64.53
77023;BME280;65952;51.440;-2.054;2023-03-04T05:55:13;101782.69;;;4.13;64.54
77023;BME280;65952;51.440;-2.054;2023-03-04T05:57:39;101790.66;;;4.13;64.66
77023;BME280;65952;51.440;-2.054;2023-03-04T06:00:05;101788.75;;;4.15;64.73
77023;BME280;65952;51.440;-2.054;2023-03-04T06:02:36;101785.16;;;4.16;64.55
77023;BME280;65952;51.440;-2.054;2023-03-04T06:05:03;101794.75;;;4.18;64.65
77023;BME280;65952;51.440;-2.054;2023-03-04T06:07:28;101791.13;;;4.19;65.03
77023;BME280;65952;51.440;-2.054;2023-03-04T06:09:54;101790.19;;;4.20;65.15
77023;BME280;65952;51.440;-2.054;2023-03-04T06:12:19;101790.56;;;4.14;65.17
77023;BME280;65952;51.440;-2.054;2023-03-04T06:14:45;101790.66;;;4.13;65.21
77023;BME280;65952;51.440;-2.054;2023-03-04T06:17:10;101785.41;;;4.11;65.63
77023;BME280;65952;51.440;-2.054;2023-03-04T06:19:35;101785.50;;;4.10;65.61
77023;BME280;65952;51.440;-2.054;2023-03-04T06:22:02;101795.44;;;4.06;66.12
77023;BME280;65952;51.440;-2.054;2023-03-04T06:24:28;101786.44;;;4.09;65.77
77023;BME280;65952;51.440;-2.054;2023-03-04T06:26:53;101784.13;;;4.02;65.84
77023;BME280;65952;51.440;-2.054;2023-03-04T06:29:18;101794.34;;;4.10;65.50
77023;BME280;65952;51.440;-2.054;2023-03-04T06:31:44;101795.19;;;4.11;65.52
77023;BME280;65952;51.440;-2.054;2023-03-04T06:34:09;101799.81;;;4.07;65.35
77023;BME280;65952;51.440;-2.054;2023-03-04T06:36:35;101794.34;;;4.10;65.35
77023;BME280;65952;51.440;-2.054;2023-03-04T06:39:04;101796.38;;;4.05;65.84
77023;BME280;65952;51.440;-2.054;2023-03-04T06:41:30;101794.88;;;4.01;65.89
77023;BME280;65952;51.440;-2.054;2023-03-04T06:43:55;101789.09;;;4.09;65.89
77023;BME280;65952;51.440;-2.054;2023-03-04T06:46:21;101795.28;;;4.09;65.68
77023;BME280;65952;51.440;-2.054;2023-03-04T06:48:47;101787.09;;;3.98;65.83
77023;BME280;65952;51.440;-2.054;2023-03-04T06:51:12;101790.19;;;3.90;65.88
77023;BME280;65952;51.440;-2.054;2023-03-04T06:53:39;101803.72;;;3.85;66.44
77023;BME280;65952;51.440;-2.054;2023-03-04T06:56:06;101806.63;;;3.97;66.13
77023;BME280;65952;51.440;-2.054;2023-03-04T06:58:32;101801.47;;;3.94;66.09
77023;BME280;65952;51.440;-2.054;2023-03-04T07:01:12;101803.78;;;4.00;65.92
77023;BME280;65952;51.440;-2.054;2023-03-04T07:03:37;101817.59;;;4.06;65.88
77023;BME280;65952;51.440;-2.054;2023-03-04T07:06:03;101810.19;;;4.12;65.63
77023;BME280;65952;51.440;-2.054;2023-03-04T07:08:28;101815.00;;;4.05;65.58
77023;BME280;65952;51.440;-2.054;2023-03-04T07:10:53;101815.00;;;4.05;65.53
77023;BME280;65952;51.440;-2.054;2023-03-04T07:13:19;101811.97;;;4.11;65.54
77023;BME280;65952;51.440;-2.054;2023-03-04T07:15:44;101817.13;;;4.14;65.77
77023;BME280;65952;51.440;-2.054;2023-03-04T07:18:10;101812.97;;;4.10;65.66
77023;BME280;65952;51.440;-2.054;2023-03-04T07:20:35;101817.41;;;4.10;65.94
77023;BME280;65952;51.440;-2.054;2023-03-04T07:23:01;101822.91;;;4.06;65.99
77023;BME280;65952;51.440;-2.054;2023-03-04T07:25:26;101816.91;;;4.03;65.63
77023;BME280;65952;51.440;-2.054;2023-03-04T07:27:51;101833.88;;;4.00;65.33
77023;BME280;65952;51.440;-2.054;2023-03-04T07:30:17;101825.72;;;4.03;65.53
77023;BME280;65952;51.440;-2.054;2023-03-04T07:32:42;101832.75;;;4.04;65.29
77023;BME280;65952;51.440;-2.054;2023-03-04T07:35:08;101823.25;;;4.00;65.44
77023;BME280;65952;51.440;-2.054;2023-03-04T07:37:33;101826.41;;;4.07;65.11
77023;BME280;65952;51.440;-2.054;2023-03-04T07:39:58;101820.25;;;4.06;64.96
77023;BME280;65952;51.440;-2.054;2023-03-04T07:42:24;101825.47;;;4.08;64.79
77023;BME280;65952;51.440;-2.054;2023-03-04T07:44:49;101827.00;;;4.12;64.77
77023;BME280;65952;51.440;-2.054;2023-03-04T07:47:15;101822.56;;;4.13;64.52
77023;BME280;65952;51.440;-2.054;2023-03-04T07:49:40;101827.41;;;4.20;64.69
77023;BME280;65952;51.440;-2.054;2023-03-04T07:52:05;101825.50;;;4.22;64.88
77023;BME280;65952;51.440;-2.054;2023-03-04T07:54:31;101834.25;;;4.25;64.95
77023;BME280;65952;51.440;-2.054;2023-03-04T07:56:56;101832.19;;;4.30;64.82
77023;BME280;65952;51.440;-2.054;2023-03-04T07:59:22;101829.72;;;4.27;65.25
77023;BME280;65952;51.440;-2.054;2023-03-04T08:01:47;101827.13;;;4.25;64.99
77023;BME280;65952;51.440;-2.054;2023-03-04T08:04:13;101833.47;;;4.22;65.20
77023;BME280;65952;51.440;-2.054;2023-03-04T08:06:41;101826.28;;;4.25;65.40
77023;BME280;65952;51.440;-2.054;2023-03-04T08:09:07;101830.47;;;4.29;65.04
77023;BME280;65952;51.440;-2.054;2023-03-04T08:11:35;101830.56;;;4.27;64.78
77023;BME280;65952;51.440;-2.054;2023-03-04T08:14:01;101829.78;;;4.25;64.83
77023;BME280;65952;51.440;-2.054;2023-03-04T08:16:27;101835.56;;;4.17;64.59
77023;BME280;65952;51.440;-2.054;2023-03-04T08:18:55;101830.47;;;4.29;64.46
77023;BME280;65952;51.440;-2.054;2023-03-04T08:21:22;101837.16;;;4.36;64.63
77023;BME280;65952;51.440;-2.054;2023-03-04T08:23:48;101843.59;;;4.32;64.56
77023;BME280;65952;51.440;-2.054;2023-03-04T08:26:23;101839.81;;;4.36;64.08
77023;BME280;65952;51.440;-2.054;2023-03-04T08:28:49;101845.13;;;4.36;64.22
77023;BME280;65952;51.440;-2.054;2023-03-04T08:31:16;101842.31;;;4.39;64.10
77023;BME280;65952;51.440;-2.054;2023-03-04T08:33:42;101844.19;;;4.37;64.02
77023;BME280;65952;51.440;-2.054;2023-03-04T08:36:08;101847.75;;;4.21;64.26
77023;BME280;65952;51.440;-2.054;2023-03-04T08:38:33;101855.16;;;4.31;64.04
77023;BME280;65952;51.440;-2.054;2023-03-04T08:40:59;101859.34;;;4.35;64.51
77023;BME280;65952;51.440;-2.054;2023-03-04T08:43:25;101862.91;;;4.35;64.11
77023;BME280;65952;51.440;-2.054;2023-03-04T08:45:54;101861.91;;;4.36;64.20
77023;BME280;65952;51.440;-2.054;2023-03-04T08:48:20;101862.53;;;4.42;64.08
77023;BME280;65952;51.440;-2.054;2023-03-04T08:50:46;101861.41;;;4.46;63.84
77023;BME280;65952;51.440;-2.054;2023-03-04T08:53:12;101849.41;;;4.38;64.00
77023;BME280;65952;51.440;-2.054;2023-03-04T08:55:39;101861.75;;;4.39;63.64
77023;BME280;65952;51.440;-2.054;2023-03-04T08:58:05;101853.69;;;4.41;63.70
77023;BME280;65952;51.440;-2.054;2023-03-04T09:00:33;101853.59;;;4.43;63.39
77023;BME280;65952;51.440;-2.054;2023-03-04T09:02:58;101859.25;;;4.36;63.40
77023;BME280;65952;51.440;-2.054;2023-03-04T09:05:23;101853.78;;;4.39;63.32
77023;BME280;65952;51.440;-2.054;2023-03-04T09:07:49;101858.25;;;4.39;63.66
77023;BME280;65952;51.440;-2.054;2023-03-04T09:10:14;101856.94;;;4.46;63.31
77023;BME280;65952;51.440;-2.054;2023-03-04T09:12:40;101859.22;;;4.52;63.42
77023;BME280;65952;51.440;-2.054;2023-03-04T09:15:06;101856.44;;;4.39;62.96
77023;BME280;65952;51.440;-2.054;2023-03-04T09:17:32;101854.56;;;4.42;62.92
77023;BME280;65952;51.440;-2.054;2023-03-04T09:19:57;101854.84;;;4.51;63.03
77023;BME280;65952;51.440;-2.054;2023-03-04T09:22:23;101851.44;;;4.49;62.85
77023;BME280;65952;51.440;-2.054;2023-03-04T09:24:48;101855.63;;;4.53;62.94
77023;BME280;65952;51.440;-2.054;2023-03-04T09:27:14;101852.69;;;4.58;62.41
77023;BME280;65952;51.440;-2.054;2023-03-04T09:29:39;101853.66;;;4.57;62.40
77023;BME280;65952;51.440;-2.054;2023-03-04T09:32:05;101854.22;;;4.62;62.80
77023;BME280;65952;51.440;-2.054;2023-03-04T09:34:30;101856.47;;;4.54;63.19
77023;BME280;65952;51.440;-2.054;2023-03-04T09:36:55;101860.09;;;4.53;63.00
77023;BME280;65952;51.440;-2.054;2023-03-04T09:39:21;101854.47;;;4.43;63.10
77023;BME280;65952;51.440;-2.054;2023-03-04T09:41:49;101859.88;;;4.42;62.88
77023;BME280;65952;51.440;-2.054;2023-03-04T09:46:58;101866.75;;;4.60;63.13
77023;BME280;65952;51.440;-2.054;2023-03-04T09:49:25;101865.06;;;4.59;62.25
77023;BME280;65952;51.440;-2.054;2023-03-04T09:55:24;101864.84;;;4.48;62.53
77023;BME280;65952;51.440;-2.054;2023-03-04T09:57:47;101866.84;;;4.59;62.30
77023;BME280;65952;51.440;-2.054;2023-03-04T10:00:23;101860.81;;;4.71;61.98
77023;BME280;65952;51.440;-2.054;2023-03-04T10:06:11;101871.53;;;4.69;61.71
77023;BME280;65952;51.440;-2.054;2023-03-04T10:11:40;101864.09;;;4.91;61.78
77023;BME280;65952;51.440;-2.054;2023-03-04T10:16:58;101864.13;;;4.75;61.46
77023;BME280;65952;51.440;-2.054;2023-03-04T10:22:20;101853.81;;;4.84;61.70
77023;BME280;65952;51.440;-2.054;2023-03-04T10:24:48;101848.06;;;4.76;61.54
77023;BME280;65952;51.440;-2.054;2023-03-04T10:27:16;101849.31;;;4.70;61.84
77023;BME280;65952;51.440;-2.054;2023-03-04T10:29:46;101851.69;;;4.75;62.18
77023;BME280;65952;51.440;-2.054;2023-03-04T10:32:15;101850.16;;;4.71;61.80
77023;BME280;65952;51.440;-2.054;2023-03-04T10:34:42;101851.00;;;4.71;61.87
77023;BME280;65952;51.440;-2.054;2023-03-04T10:37:07;101842.38;;;4.82;61.75
77023;BME280;65952;51.440;-2.054;2023-03-04T10:39:37;101852.88;;;5.00;62.01
77023;BME280;65952;51.440;-2.054;2023-03-04T10:44:50;101845.34;;;4.92;61.24
77023;BME280;65952;51.440;-2.054;2023-03-04T10:47:16;101847.72;;;4.97;61.45
77023;BME280;65952;51.440;-2.054;2023-03-04T10:49:59;101848.97;;;5.05;61.23
77023;BME280;65952;51.440;-2.054;2023-03-04T10:52:37;101841.25;;;5.15;60.65
77023;BME280;65952;51.440;-2.054;2023-03-04T10:55:13;101837.75;;;5.15;60.96
77023;BME280;65952;51.440;-2.054;2023-03-04T10:57:40;101838.59;;;5.15;60.79
77023;BME280;65952;51.440;-2.054;2023-03-04T11:02:42;101834.03;;;5.32;61.16
77023;BME280;65952;51.440;-2.054;2023-03-04T11:10:16;101820.72;;;5.32;60.10
77023;BME280;65952;51.440;-2.054;2023-03-04T11:12:47;101822.31;;;5.34;60.68
77023;BME280;65952;51.440;-2.054;2023-03-04T11:15:21;101815.78;;;5.40;60.68
77023;BME280;65952;51.440;-2.054;2023-03-04T11:18:05;101814.34;;;5.49;60.18
77023;BME280;65952;51.440;-2.054;2023-03-04T11:20:42;101807.75;;;5.54;60.91
77023;BME280;65952;51.440;-2.054;2023-03-04T11:25:57;101815.91;;;5.66;60.15
77023;BME280;65952;51.440;-2.054;2023-03-04T11:28:46;101815.06;;;5.65;60.46
77023;BME280;65952;51.440;-2.054;2023-03-04T11:31:29;101813.16;;;5.53;59.28
77023;BME280;65952;51.440;-2.054;2023-03-04T11:34:12;101805.88;;;5.42;60.13
77023;BME280;65952;51.440;-2.054;2023-03-04T11:37:00;101812.16;;;5.41;59.32
77023;BME280;65952;51.440;-2.054;2023-03-04T11:44:35;101797.97;;;5.55;59.59
77023;BME280;65952;51.440;-2.054;2023-03-04T11:50:22;101798.94;;;5.40;59.58
77023;BME280;65952;51.440;-2.054;2023-03-04T11:53:14;101796.19;;;5.41;59.75
77023;BME280;65952;51.440;-2.054;2023-03-04T11:55:47;101798.53;;;5.46;60.13
77023;BME280;65952;51.440;-2.054;2023-03-04T12:09:35;101778.81;;;5.63;59.20
77023;BME280;65952;51.440;-2.054;2023-03-04T12:14:43;101778.88;;;5.34;58.58
77023;BME280;65952;51.440;-2.054;2023-03-04T12:20:09;101778.88;;;5.34;57.96
77023;BME280;65952;51.440;-2.054;2023-03-04T12:39:22;101743.34;;;5.62;57.69
77023;BME280;65952;51.440;-2.054;2023-03-04T12:44:45;101736.88;;;5.52;56.85
77023;BME280;65952;51.440;-2.054;2023-03-04T12:50:13;101729.78;;;5.93;56.82
77023;BME280;65952;51.440;-2.054;2023-03-04T12:55:18;101733.16;;;6.09;56.22
77023;BME280;65952;51.440;-2.054;2023-03-04T12:57:47;101735.41;;;5.88;55.94
77023;BME280;65952;51.440;-2.054;2023-03-04T13:05:53;101723.81;;;5.62;57.70
77023;BME280;65952;51.440;-2.054;2023-03-04T13:16:31;101716.94;;;6.12;57.25
77023;BME280;65952;51.440;-2.054;2023-03-04T13:18:59;101715.25;;;6.11;56.52
77023;BME280;65952;51.440;-2.054;2023-03-04T13:21:29;101705.94;;;6.04;56.00
77023;BME280;65952;51.440;-2.054;2023-03-04T13:31:13;101701.78;;;6.00;56.59
77023;BME280;65952;51.440;-2.054;2023-03-04T13:35:47;101697.19;;;6.02;57.02
77023;BME280;65952;51.440;-2.054;2023-03-04T13:43:40;101693.47;;;5.77;57.80
77023;BME280;65952;51.440;-2.054;2023-03-04T13:51:33;101688.28;;;5.89;58.04
77023;BME280;65952;51.440;-2.054;2023-03-04T14:02:01;101678.19;;;5.94;57.34
77023;BME280;65952;51.440;-2.054;2023-03-04T14:04:29;101670.91;;;5.96;56.82
77023;BME280;65952;51.440;-2.054;2023-03-04T14:06:57;101663.88;;;5.95;56.27
77023;BME280;65952;51.440;-2.054;2023-03-04T14:09:26;101668.00;;;5.86;56.53
77023;BME280;65952;51.440;-2.054;2023-03-04T14:11:54;101656.22;;;5.90;56.91
77023;BME280;65952;51.440;-2.054;2023-03-04T14:14:27;101661.88;;;5.98;57.25
77023;BME280;65952;51.440;-2.054;2023-03-04T14:16:57;101658.47;;;5.96;56.76
77023;BME280;65952;51.440;-2.054;2023-03-04T14:21:55;101656.28;;;5.89;57.37
77023;BME280;65952;51.440;-2.054;2023-03-04T14:24:21;101649.47;;;5.84;57.43
77023;BME280;65952;51.440;-2.054;2023-03-04T14:26:48;101651.59;;;5.92;56.95
77023;BME280;65952;51.440;-2.054;2023-03-04T14:29:24;101637.97;;;5.97;56.93
77023;BME280;65952;51.440;-2.054;2023-03-04T14:31:50;101636.56;;;5.78;56.80
77023;BME280;65952;51.440;-2.054;2023-03-04T14:34:25;101631.34;;;5.77;57.77
77023;BME280;65952;51.440;-2.054;2023-03-04T14:36:52;101637.72;;;5.74;57.93
77023;BME280;65952;51.440;-2.054;2023-03-04T14:39:19;101624.91;;;5.53;57.57
77023;BME280;65952;51.440;-2.054;2023-03-04T14:41:46;101623.63;;;5.59;58.00
77023;BME280;65952;51.440;-2.054;2023-03-04T14:46:48;101617.81;;;5.80;57.49
77023;BME280;65952;51.440;-2.054;2023-03-04T14:49:15;101609.91;;;5.78;57.52
77023;BME280;65952;51.440;-2.054;2023-03-04T14:51:48;101618.56;;;5.82;58.27
77023;BME280;65952;51.440;-2.054;2023-03-04T14:54:36;101614.50;;;5.76;57.75
77023;BME280;65952;51.440;-2.054;2023-03-04T14:57:23;101607.47;;;5.75;57.98
77023;BME280;65952;51.440;-2.054;2023-03-04T14:59:51;101615.88;;;5.69;57.37
77023;BME280;65952;51.440;-2.054;2023-03-04T15:02:39;101614.47;;;5.63;57.56
77023;BME280;65952;51.440;-2.054;2023-03-04T15:05:28;101606.28;;;5.66;57.35